Map

Track Data

SID SEASON NUMBER BASIN SUBBASIN NAME ISO_TIME NATURE LAT LON WMO_WIND WMO_PRES WMO_AGENCY TRACK_TYPE DIST2LAND LANDFALL IFLAG USA_AGENCY USA_ATCF_ID USA_LAT USA_LON USA_RECORD USA_STATUS USA_WIND USA_PRES USA_SSHS USA_R34_NE USA_R34_SE USA_R34_SW USA_R34_NW USA_R50_NE USA_R50_SE USA_R50_SW USA_R50_NW USA_R64_NE USA_R64_SE USA_R64_SW USA_R64_NW USA_POCI USA_ROCI USA_RMW USA_EYE TOKYO_LAT TOKYO_LON TOKYO_GRADE TOKYO_WIND TOKYO_PRES TOKYO_R50_DIR TOKYO_R50_LONG TOKYO_R50_SHORT TOKYO_R30_DIR TOKYO_R30_LONG TOKYO_R30_SHORT TOKYO_LAND CMA_LAT CMA_LON CMA_CAT CMA_WIND CMA_PRES HKO_LAT HKO_LON HKO_CAT HKO_WIND HKO_PRES NEWDELHI_LAT NEWDELHI_LON NEWDELHI_GRADE NEWDELHI_WIND NEWDELHI_PRES NEWDELHI_CI NEWDELHI_DP NEWDELHI_POCI REUNION_LAT REUNION_LON REUNION_TYPE REUNION_WIND REUNION_PRES REUNION_TNUM REUNION_CI REUNION_RMW REUNION_R34_NE REUNION_R34_SE REUNION_R34_SW REUNION_R34_NW REUNION_R50_NE REUNION_R50_SE REUNION_R50_SW REUNION_R50_NW REUNION_R64_NE REUNION_R64_SE REUNION_R64_SW REUNION_R64_NW BOM_LAT BOM_LON BOM_TYPE BOM_WIND BOM_PRES BOM_TNUM BOM_CI BOM_RMW BOM_R34_NE BOM_R34_SE BOM_R34_SW BOM_R34_NW BOM_R50_NE BOM_R50_SE BOM_R50_SW BOM_R50_NW BOM_R64_NE BOM_R64_SE BOM_R64_SW BOM_R64_NW BOM_ROCI BOM_POCI BOM_EYE BOM_POS_METHOD BOM_PRES_METHOD NADI_LAT NADI_LON NADI_CAT NADI_WIND NADI_PRES WELLINGTON_LAT WELLINGTON_LON WELLINGTON_WIND WELLINGTON_PRES DS824_LAT DS824_LON DS824_STAGE DS824_WIND DS824_PRES TD9636_LAT TD9636_LON TD9636_STAGE TD9636_WIND TD9636_PRES TD9635_LAT TD9635_LON TD9635_WIND TD9635_PRES TD9635_ROCI NEUMANN_LAT NEUMANN_LON NEUMANN_CLASS NEUMANN_WIND NEUMANN_PRES MLC_LAT MLC_LON MLC_CLASS MLC_WIND MLC_PRES USA_GUST BOM_GUST BOM_GUST_PER REUNION_GUST REUNION_GUST_PER USA_SEAHGT USA_SEARAD_NE USA_SEARAD_SE USA_SEARAD_SW USA_SEARAD_NW STORM_SPEED STORM_DIR
1955271N12145 1955 77 WP MM MARGE 1955-09-27 12:00:00 TS 12.3667 144.817 1004 tokyo main 1636 1636 OOO______OOO__ jtwc_wp WP161955 12.0000 145.000 40 0 13.1000 144.400 2 1004 0 0 0 13.1000 144.500 1 23 1004 12.0000 145.000 TC 40 12.0000 145.000 2 40 12.0000 145.000 40 1005 60 18 322
1955271N12145 1955 77 WP MM MARGE 1955-09-27 15:00:00 TS 13.0806 144.243 main 1723 1723 PPP______PPP__ WP161955 13.0281 144.339 47 0 13.3577 143.928 2 1004 0 0 13.3553 143.983 1 23 1004 13.0281 144.339 TC 47 12.6867 144.531 2 43 13.0281 144.339 47 1004 60 17 321
1955271N12145 1955 77 WP MM MARGE 1955-09-27 18:00:00 TS 13.6547 143.745 1004 tokyo main 1798 1798 OOO______OPO__ jtwc_wp WP161955 13.8000 143.800 55 0 13.6000 143.500 9 1004 0 0 0 13.6000 143.500 1 23 1004 13.8000 143.800 TC 55 13.3285 144.068 2 47 13.8000 143.800 55 1004 60 13 317
1955271N12145 1955 77 WP MM MARGE 1955-09-27 21:00:00 TS 13.9970 143.371 main 1837 1835 PPP______PPP__ WP161955 14.1547 143.462 55 0 13.8148 143.142 9 1004 0 0 13.8224 143.077 1 26 1004 14.1547 143.462 TC 55 13.8810 143.621 2 51 14.1547 143.462 55 1004 60 9 309
1955271N12145 1955 77 WP MM MARGE 1955-09-28 00:00:00 TS 14.2000 143.050 1004 tokyo main 1850 1847 OOO______OOO__ jtwc_wp WP161955 14.3000 143.200 55 0 14.0000 142.800 9 1004 0 0 0 14.0000 142.700 1 29 1004 14.3000 143.200 TC 55 14.3000 143.200 2 55 14.3000 143.200 55 1004 60 8 302
1955271N12145 1955 77 WP MM MARGE 1955-09-28 03:00:00 TS 14.4009 142.691 main 1859 1832 PPP______PPP__ WP161955 14.5299 142.865 55 0 14.1500 142.400 9 1003 0 0 14.1074 142.342 1 29 1003 14.5299 142.865 TC 55 14.5579 142.810 2 55 14.5299 142.865 55 1003 60 8 296
1955271N12145 1955 77 WP MM MARGE 1955-09-28 06:00:00 TS 14.5486 142.323 1002 tokyo main 1832 1802 OOO______OPO__ jtwc_wp WP161955 14.7000 142.500 55 0 14.3000 142.000 9 1002 0 0 0 14.2000 142.000 1 29 1002 14.7000 142.500 TC 55 14.6918 142.441 2 55 14.7000 142.500 55 1003 60 8 289
1955271N12145 1955 77 WP MM MARGE 1955-09-28 09:00:00 TS 14.6524 141.950 main 1794 1762 PPP______PPP__ WP161955 14.7724 142.115 55 0 14.4999 141.635 9 1001 0 0 14.3425 141.643 1 29 1001 14.7724 142.115 TC 55 14.7548 142.076 2 55 14.7724 142.115 55 1002 90 8 284
1955271N12145 1955 77 WP MM MARGE 1955-09-28 12:00:00 TS 14.7333 141.567 1000 tokyo main 1762 1722 OOO______OOO__ jtwc_wp WP161955 14.8000 141.700 55 0 14.7000 141.300 9 1000 0 0 0 14.5000 141.300 1 29 1000 14.8000 141.700 TC 55 14.8000 141.700 2 55 14.8000 141.700 55 1001 120 8 282
1955271N12145 1955 77 WP MM MARGE 1955-09-28 15:00:00 TS 14.8106 141.165 main 1722 1681 PPP______PPP__ WP161955 14.8350 141.250 55 0 14.8574 141.007 9 1000 0 0 14.6424 141.007 1 29 1000 14.8350 141.250 TC 55 14.8589 141.228 2 55 14.8350 141.250 55 1000 120 8 282
1955271N12145 1955 77 WP MM MARGE 1955-09-28 18:00:00 TS 14.9030 140.759 1000 tokyo main 1681 1630 OOO______OPO__ jtwc_wp WP161955 14.9000 140.800 55 0 15.0000 140.700 9 1000 0 0 0 14.8000 140.700 1 29 1000 14.9000 140.800 TC 55 14.9182 140.752 2 55 14.9000 140.800 55 999 120 8 285
1955271N12145 1955 77 WP MM MARGE 1955-09-28 21:00:00 TS 15.0256 140.318 main 1630 1602 PPP______PPP__ WP161955 15.0126 140.348 55 0 15.1277 140.270 9 1000 0 0 14.9702 140.270 1 29 1000 15.0126 140.348 TC 55 15.0183 140.325 2 55 15.0126 140.348 55 998 90 8 292
1955271N12145 1955 77 WP MM MARGE 1955-09-29 00:00:00 TS 15.2167 139.967 1000 tokyo main 1602 1585 OOO______OOO__ jtwc_wp WP161955 15.2000 140.000 55 0 15.3000 139.900 9 1000 0 0 0 15.2000 139.900 1 29 1000 15.2000 140.000 TC 55 15.2000 140.000 2 55 15.2000 140.000 55 998 60 7 313
1955271N12145 1955 77 WP MM MARGE 1955-09-29 03:00:00 TS 15.4896 139.805 main 1587 1587 PPP______PPP__ WP161955 15.4474 139.840 57 0 15.5624 139.740 9 999 0 0 15.5199 139.740 1 33 999 15.4474 139.840 TC 57 15.5133 139.830 2 58 15.4474 139.840 58 997 90 7 343
1955271N12145 1955 77 WP MM MARGE 1955-09-29 06:00:00 TS 15.8516 139.761 998 tokyo main 1597 1589 OOO______OPO__ jtwc_wp WP161955 15.8000 139.800 60 0 15.9000 139.700 9 998 0 0 0 15.9000 139.700 2 38 998 15.8000 139.800 TC 60 15.9095 139.765 2 62 15.8000 139.800 62 996 120 8 356
1955271N12145 1955 77 WP MM MARGE 1955-09-29 09:00:00 TS 16.2972 139.745 main 1597 1597 PPP______PPP__ WP161955 16.2850 139.777 65 1 16.2850 139.685 9 997 0 0 16.2925 139.685 2 38 997 16.2850 139.777 TC 65 16.3510 139.767 2 66 16.2850 139.777 66 995 120 9 1
1955271N12145 1955 77 WP MM MARGE 1955-09-29 12:00:00 TS 16.7667 139.767 996 tokyo main 1623 1623 OOO______OOO__ jtwc_wp WP161955 16.8000 139.800 70 1 16.7000 139.700 9 996 0 0 0 16.7000 139.700 2 38 996 16.8000 139.800 TC 70 16.8000 139.800 3 70 16.8000 139.800 70 994 120 9 4
1955271N12145 1955 77 WP MM MARGE 1955-09-29 15:00:00 TS 17.1773 139.805 main 1636 1636 PPP______PPP__ WP161955 17.2150 139.850 70 1 17.1075 139.707 9 995 0 0 17.1075 139.707 2 38 995 17.2150 139.850 TC 70 17.2039 139.863 3 73 17.2150 139.850 70 993 150 8 5
1955271N12145 1955 77 WP MM MARGE 1955-09-29 18:00:00 TS 17.5679 139.840 994 tokyo main 1650 1650 OOO______OPO__ jtwc_wp WP161955 17.6000 139.900 70 1 17.5000 139.700 9 994 0 0 0 17.5000 139.700 2 38 994 17.6000 139.900 TC 70 17.6071 139.938 3 77 17.6000 139.900 70 992 180 8 3
1955271N12145 1955 77 WP MM MARGE 1955-09-29 21:00:00 TS 17.9536 139.849 main 1666 1666 PPP______PPP__ WP161955 18.0000 139.937 77 1 17.8575 139.658 9 992 0 0 17.8575 139.658 2 43 992 18.0000 139.937 TC 77 18.0068 139.969 3 81 18.0000 139.937 77 991 210 8 358
1955271N12145 1955 77 WP MM MARGE 1955-09-30 00:00:00 TS 18.3333 139.800 990 tokyo main 1678 1645 OOO______OOO__ jtwc_wp WP161955 18.4000 139.900 85 2 18.2000 139.600 9 990 0 0 0 18.2000 139.600 3 48 990 18.4000 139.900 TC 85 18.4000 139.900 4 85 18.4000 139.900 85 990 240 8 348
1955271N12145 1955 77 WP MM MARGE 1955-09-30 03:00:00 TS 18.7136 139.680 main 1645 1595 PPP______PPP__ WP161955 18.8073 139.775 92 2 18.5425 139.565 9 990 0 0 18.5425 139.557 3 48 990 18.8073 139.775 TC 92 18.7747 139.630 4 88 18.8073 139.775 92 989 270 8 337
1955271N12145 1955 77 WP MM MARGE 1955-09-30 06:00:00 TS 19.0906 139.460 990 tokyo main 1595 1545 OOO______OPO__ jtwc_wp WP161955 19.2000 139.500 100 3 18.9000 139.500 9 990 0 0 0 18.9000 139.500 3 48 990 19.2000 139.500 TC 100 19.1435 139.261 4 92 19.2000 139.500 100 989 300 9 324
1955271N12145 1955 77 WP MM MARGE 1955-09-30 09:00:00 TS 19.4562 139.105 main 1535 1490 PPP______PPP__ WP161955 19.5505 138.978 100 3 19.2774 139.395 9 990 0 0 19.2924 139.437 3 53 989 19.5505 138.978 TC 100 19.5154 138.862 4 96 19.5505 138.978 100 987 330 10 318
1955271N12145 1955 77 WP MM MARGE 1955-09-30 12:00:00 TS 19.8333 138.750 990 tokyo main 1490 1441 OOO______OOO__ jtwc_wp WP161955 19.9000 138.500 100 3 19.7000 139.200 9 990 0 0 0 19.7000 139.300 3 58 988 19.9000 138.500 TC 100 19.9000 138.500 4 100 19.9000 138.500 100 985 360 9 328
1955271N12145 1955 77 WP MM MARGE 1955-09-30 15:00:00 TS 20.2434 138.580 main 1441 1392 PPP______PPP__ WP161955 20.2847 138.419 100 3 20.2001 138.873 9 990 0 0 20.0925 139.037 3 63 987 20.2847 138.419 TC 100 20.3139 138.310 4 100 20.2847 138.419 100 982 390 9 340
1955271N12145 1955 77 WP MM MARGE 1955-09-30 18:00:00 TS 20.6736 138.427 990 tokyo main 1383 1334 OOO______OPO__ jtwc_wp WP161955 20.7000 138.400 100 3 20.7000 138.500 9 990 0 0 0 20.5000 138.700 4 68 987 20.7000 138.400 TC 100 20.7414 138.163 4 100 20.7000 138.400 100 980 420 10 336
1955271N12145 1955 77 WP MM MARGE 1955-09-30 21:00:00 TS 21.1297 138.168 main 1334 1280 PPP______PPP__ WP161955 21.1725 138.145 100 3 21.1298 138.207 9 987 0 0 20.9575 138.358 4 72 983 21.1725 138.145 TC 100 21.1733 138.010 4 100 21.1725 138.145 100 977 390 10 328
1955271N12145 1955 77 WP MM MARGE 1955-10-01 00:00:00 TS 21.5500 137.850 985 tokyo main 1265 1229 OOO______OOO__ jtwc_wp WP161955 21.6000 137.800 100 3 21.5000 137.900 9 985 0 0 0 21.4000 138.000 4 77 980 21.6000 137.800 TC 100 21.6000 137.800 4 100 21.6000 137.800 100 975 360 9 319
1955271N12145 1955 77 WP MM MARGE 1955-10-01 03:00:00 TS 21.8357 137.501 main 1229 1179 PPP______PPP__ WP161955 21.8349 137.472 100 3 21.7926 137.500 9 980 0 0 21.7499 137.657 4 82 977 21.8349 137.472 TC 100 21.9673 137.436 4 98 21.8349 137.472 99 974 330 9 311
1955271N12145 1955 77 WP MM MARGE 1955-10-01 06:00:00 TS 22.1389 137.119 975 tokyo main 1179 1110 OOO______OPO__ jtwc_wp WP161955 22.1000 137.100 100 3 22.1000 137.100 9 975 0 0 0 22.1000 137.300 5 87 974 22.1000 137.100 TC 100 22.3337 137.015 4 97 22.1000 137.100 98 974 300 11 315
1955271N12145 1955 77 WP MM MARGE 1955-10-01 09:00:00 TS 22.5856 136.691 main 1110 1041 PPP______PPP__ WP161955 22.5903 136.628 97 3 22.4974 136.785 9 975 0 0 22.5126 136.892 5 87 974 22.5903 136.628 TC 97 22.7330 136.586 4 96 22.5903 136.628 96 974 300 13 323
1955271N12145 1955 77 WP MM MARGE 1955-10-01 12:00:00 TS 23.1333 136.300 975 tokyo main 1041 968 OOO______OOO__ jtwc_wp WP161955 23.2000 136.200 95 2 23.0000 136.500 9 975 0 0 0 23.0000 136.500 5 87 974 23.2000 136.200 TC 95 23.2000 136.200 4 95 23.2000 136.200 95 974 300 13 333
1955271N12145 1955 77 WP MM MARGE 1955-10-01 15:00:00 TS 23.7492 136.036 main 968 891 PPP______PPP__ WP161955 23.8347 135.969 95 2 23.6275 136.193 9 975 0 0 23.5699 136.177 5 87 974 23.8347 135.969 TC 95 23.7937 135.936 4 95 23.8347 135.969 95 973 300 14 341
1955271N12145 1955 77 WP MM MARGE 1955-10-01 18:00:00 TS 24.4090 135.820 975 tokyo main 891 824 OOO______OPO__ jtwc_wp WP161955 24.5000 135.800 95 2 24.3000 135.900 9 975 0 0 0 24.2000 135.900 5 87 974 24.5000 135.800 TC 95 24.4541 135.718 4 95 24.5000 135.800 95 973 300 14 342
1955271N12145 1955 77 WP MM MARGE 1955-10-01 21:00:00 TS 25.0600 135.575 main 814 741 PPP______PPP__ WP161955 25.1575 135.550 95 2 24.8999 135.642 9 975 0 0 24.8499 135.642 5 87 973 25.1575 135.550 TC 95 25.1376 135.517 4 95 25.1575 135.550 95 972 300 14 341
1955271N12145 1955 77 WP MM MARGE 1955-10-02 00:00:00 TS 25.7000 135.333 975 tokyo main 741 673 OOO______OOO__ jtwc_wp WP161955 25.8000 135.300 95 2 25.5000 135.400 9 975 0 0 0 25.5000 135.400 5 87 973 25.8000 135.300 TC 95 25.8000 135.300 4 95 25.8000 135.300 95 971 300 13 342
1955271N12145 1955 77 WP MM MARGE 1955-10-02 03:00:00 TS 26.3193 135.110 main 673 606 PPP______PPP__ WP161955 26.4223 135.122 95 2 26.1499 135.157 9 975 0 0 26.0999 135.157 5 92 971 26.4223 135.122 TC 95 26.3994 134.982 4 95 26.4223 135.122 95 969 330 13 341
1955271N12145 1955 77 WP MM MARGE 1955-10-02 06:00:00 TS 26.9113 134.858 975 tokyo main 606 528 OOO______OPO__ jtwc_wp WP161955 27.0000 134.900 95 2 26.8000 134.900 9 975 0 0 0 26.7000 134.900 5 97 969 27.0000 134.900 TC 95 26.9681 134.649 4 95 27.0000 134.900 95 968 360 13 335
1955271N12145 1955 77 WP MM MARGE 1955-10-02 09:00:00 TS 27.4877 134.499 main 528 465 PPP______PPP__ WP161955 27.5304 134.486 95 2 27.4450 134.600 9 970 0 0 27.3876 134.593 5 97 967 27.5304 134.486 TC 95 27.5026 134.342 4 95 27.5304 134.486 95 966 330 13 331
1955271N12145 1955 77 WP MM MARGE 1955-10-02 12:00:00 TS 28.0000 134.167 965 tokyo main 465 417 OOO______OOO__ jtwc_wp WP161955 28.0000 134.100 95 2 28.0000 134.300 9 965 0 0 0 28.0000 134.300 5 97 965 28.0000 134.100 TC 95 28.0000 134.100 4 95 28.0000 134.100 95 965 300 10 334
1955271N12145 1955 77 WP MM MARGE 1955-10-02 15:00:00 TS 28.4037 133.992 main 417 376 PPP______PPP__ WP161955 28.4073 133.939 95 2 28.3650 134.027 9 965 0 0 28.3874 134.084 5 97 964 28.4073 133.939 TC 95 28.4480 134.023 4 95 28.4073 133.939 95 964 270 8 343
1955271N12145 1955 77 WP MM MARGE 1955-10-02 18:00:00 TS 28.7773 133.902 965 tokyo main 376 343 OOO______OPO__ jtwc_wp WP161955 28.8000 133.900 95 2 28.7000 133.800 9 965 0 0 0 28.7000 133.900 5 97 964 28.8000 133.900 TC 95 28.8639 134.010 4 95 28.8000 133.900 95 964 240 8 352
1955271N12145 1955 77 WP MM MARGE 1955-10-02 21:00:00 TS 29.2128 133.867 main 343 305 PPP______PPP__ WP161955 29.2498 133.951 95 2 29.1774 133.650 9 967 0 0 29.0774 133.707 5 92 966 29.2498 133.951 TC 95 29.2729 133.992 4 95 29.2498 133.951 95 965 240 9 353
1955271N12145 1955 77 WP MM MARGE 1955-10-03 00:00:00 TS 29.6667 133.767 970 tokyo main 297 239 OOO______OOO__ jtwc_wp WP161955 29.7000 133.900 95 2 29.7000 133.500 9 970 0 0 0 29.5000 133.500 5 87 969 29.7000 133.900 TC 95 29.7000 133.900 4 95 29.7000 133.900 95 967 240 10 337
1955271N12145 1955 77 WP MM MARGE 1955-10-03 03:00:00 TS 30.0942 133.427 main 239 190 PPP______PPP__ WP161955 30.0781 133.488 87 2 30.2150 133.265 9 970 0 0 29.9850 133.257 5 82 969 30.0781 133.488 TC 87 30.1311 133.578 4 86 30.0781 133.488 86 969 210 11 324
1955271N12145 1955 77 WP MM MARGE 1955-10-03 06:00:00 TS 30.5482 133.030 970 tokyo main 182 140 OOO______OPO__ jtwc_wp WP161955 30.5000 133.000 80 1 30.7000 133.000 9 970 0 0 0 30.5000 133.000 4 77 970 30.5000 133.000 TC 80 30.5895 133.182 4 77 30.5000 133.000 78 972 180 11 328
1955271N12145 1955 77 WP MM MARGE 1955-10-03 09:00:00 TS 31.0499 132.743 main 131 97 PPP______PPP__ WP161955 31.0622 132.727 70 1 31.0550 132.742 9 970 0 0 30.9550 132.742 4 72 971 31.0622 132.727 TC 70 31.1029 132.794 4 68 31.0622 132.727 69 974 180 12 337
1955271N12145 1955 77 WP MM MARGE 1955-10-03 12:00:00 TS 31.6333 132.500 970 tokyo main 97 48 OOO______OOO__ jtwc_wp WP161955 31.7000 132.500 60 0 31.5000 132.500 9 970 0 0 0 31.5000 132.500 4 68 973 31.7000 132.500 TC 60 31.7000 132.500 2 60 31.7000 132.500 60 977 180 13 340
1955271N12145 1955 77 WP MM MARGE 1955-10-03 15:00:00 TS 32.3093 132.217 main 48 0 PPP______PPP__ WP161955 32.2977 132.112 57 0 32.2773 132.315 9 977 0 0 32.2850 132.285 4 63 979 32.2977 132.112 TC 57 32.4006 132.363 2 57 32.2977 132.112 57 978 180 15 345
1955271N12145 1955 77 WP MM MARGE 1955-10-03 18:00:00 TS 33.0680 132.050 985 tokyo main 14 0 OOO______OPO__ jtwc_wp WP161955 33.0000 131.900 55 0 33.1000 132.100 9 985 0 0 0 33.1000 132.100 3 58 985 33.0000 131.900 TC 55 33.1865 132.363 2 55 33.0000 131.900 55 980 180 15 351
1955271N12145 1955 77 WP MM MARGE 1955-10-03 21:00:00 TS 33.8023 131.927 main 14 0 PPP______PPP__ WP161955 33.8930 132.113 52 0 33.6334 131.516 9 992 0 0 33.7217 131.795 3 48 992 33.8930 132.113 TC 52 34.0292 132.457 2 52 33.8930 132.113 52 981 150 14 356
1955271N12145 1955 77 WP MM MARGE 1955-10-04 00:00:00 TS 34.4667 131.933 1000 tokyo main 0 0 OOO______OOO__ jtwc_wp WP161955 34.9000 132.600 50 0 34.2000 131.400 9 1000 0 0 0 34.3000 131.800 2 38 1000 34.9000 132.600 TC 50 34.9000 132.600 2 50 34.9000 132.600 50 982 120 14 24
1955271N12145 1955 77 WP MM MARGE 1955-10-04 03:00:00 TS 35.0633 132.593 main 0 0 _PP___________ WP161955 -1 35.1526 132.674 9 1003 0 0 34.9741 132.512 2 33 1003 TC 2 21 50
1955271N12145 1955 77 WP MM MARGE 1955-10-04 06:00:00 ET 35.8000 133.850 1006 tokyo main 42 42 _OO___________ -1 36.0000 134.200 6 1006 0 0 0 35.6000 133.500 9 29 1006 2 17 54
1955271N12145 1955 77 WP MM MARGE 1955-10-04 09:00:00 ET 36.0716 134.309 main 56 55 _PP___________ -1 36.1892 134.527 6 1007 0 0 35.9540 134.091 9 1006 2 12 53
1955271N12145 1955 77 WP MM MARGE 1955-10-04 12:00:00 ET 36.5000 135.000 1008 tokyo main 89 34 _OO___________ -1 36.5000 135.000 6 1008 0 0 0 36.5000 135.000 9 1006 26 49
1955271N12145 1955 77 WP MM MARGE 1955-10-04 15:00:00 ET 37.7886 136.763 main 44 44 _PP___________ -1 37.7930 136.734 6 1007 0 0 37.7842 136.793 9 1006 40 52
1955271N12145 1955 77 WP MM MARGE 1955-10-04 18:00:00 ET 39.0000 139.000 1006 tokyo main 61 0 _OO___________ -1 39.0000 139.000 6 1006 0 0 0 39.0000 139.000 9 1006 37 64
1955271N12145 1955 77 WP MM MARGE 1955-10-04 21:00:00 ET 39.3959 141.091 main 0 0 _PP___________ -1 39.3003 141.103 6 1006 0 0 39.4914 141.079 9 1006 31 85
1955271N12145 1955 77 WP MM MARGE 1955-10-05 00:00:00 ET 39.2500 143.000 1006 tokyo main 80 _OO___________ -1 39.0000 143.000 6 1006 0 0 0 39.5000 143.000 9 1006 30 96

Digital Typhoon Data and Search

About IBTrACS Database

This database is a web-friendly format of International Best Track Archive for Climate Stewardship (IBTrACS), a global best track data archive curated by NOAA dating back to 1842.

Updated: 2021-12-01